sensor_id;sensor_type;location;lat;lon;timestamp;temperature;humidity
7654;DHT22;3869;48.406;10.774;2023-06-26T00:00:51;17.30;99.40
7654;DHT22;3869;48.406;10.774;2023-06-26T00:03:19;17.30;99.50
7654;DHT22;3869;48.406;10.774;2023-06-26T00:05:47;17.30;99.50
7654;DHT22;3869;48.406;10.774;2023-06-26T00:08:17;17.30;99.50
7654;DHT22;3869;48.406;10.774;2023-06-26T00:10:46;17.30;99.50
7654;DHT22;3869;48.406;10.774;2023-06-26T00:13:18;17.30;99.60
7654;DHT22;3869;48.406;10.774;2023-06-26T00:15:46;17.30;99.70
7654;DHT22;3869;48.406;10.774;2023-06-26T00:18:14;17.20;99.70
7654;DHT22;3869;48.406;10.774;2023-06-26T00:20:42;17.20;99.70
7654;DHT22;3869;48.406;10.774;2023-06-26T00:23:11;17.20;99.80
7654;DHT22;3869;48.406;10.774;2023-06-26T00:25:40;17.10;99.70
7654;DHT22;3869;48.406;10.774;2023-06-26T00:28:10;17.10;99.80
7654;DHT22;3869;48.406;10.774;2023-06-26T00:30:38;17.10;99.90
7654;DHT22;3869;48.406;10.774;2023-06-26T00:33:06;17.00;99.90
7654;DHT22;3869;48.406;10.774;2023-06-26T00:35:34;17.00;99.90
7654;DHT22;3869;48.406;10.774;2023-06-26T00:38:02;17.00;99.90
7654;DHT22;3869;48.406;10.774;2023-06-26T00:40:30;17.00;99.90
7654;DHT22;3869;48.406;10.774;2023-06-26T00:42:58;17.00;99.90
7654;DHT22;3869;48.406;10.774;2023-06-26T00:45:28;16.80;99.90
7654;DHT22;3869;48.406;10.774;2023-06-26T00:48:10;16.90;99.90
7654;DHT22;3869;48.406;10.774;2023-06-26T00:50:40;16.80;99.90
7654;DHT22;3869;48.406;10.774;2023-06-26T00:53:09;16.80;99.90
7654;DHT22;3869;48.406;10.774;2023-06-26T00:55:38;16.80;99.90
7654;DHT22;3869;48.406;10.774;2023-06-26T00:58:06;16.80;99.90
7654;DHT22;3869;48.406;10.774;2023-06-26T01:00:36;16.80;99.90
7654;DHT22;3869;48.406;10.774;2023-06-26T01:03:04;16.80;99.90
7654;DHT22;3869;48.406;10.774;2023-06-26T01:05:32;16.70;99.90
7654;DHT22;3869;48.406;10.774;2023-06-26T01:08:00;16.70;99.90
7654;DHT22;3869;48.406;10.774;2023-06-26T01:10:29;16.70;99.90
7654;DHT22;3869;48.406;10.774;2023-06-26T01:12:58;16.70;99.90
7654;DHT22;3869;48.406;10.774;2023-06-26T01:15:26;16.60;99.90
7654;DHT22;3869;48.406;10.774;2023-06-26T01:17:57;16.60;99.90
7654;DHT22;3869;48.406;10.774;2023-06-26T01:20:26;16.60;99.90
7654;DHT22;3869;48.406;10.774;2023-06-26T01:23:03;16.60;99.90
7654;DHT22;3869;48.406;10.774;2023-06-26T01:25:37;16.60;99.90
7654;DHT22;3869;48.406;10.774;2023-06-26T01:28:12;16.50;99.90
7654;DHT22;3869;48.406;10.774;2023-06-26T01:30:43;16.50;99.90
7654;DHT22;3869;48.406;10.774;2023-06-26T01:33:12;16.50;99.90
7654;DHT22;3869;48.406;10.774;2023-06-26T01:35:40;16.50;99.90
7654;DHT22;3869;48.406;10.774;2023-06-26T01:38:13;16.50;99.90
7654;DHT22;3869;48.406;10.774;2023-06-26T01:40:41;16.50;99.90
7654;DHT22;3869;48.406;10.774;2023-06-26T01:43:16;16.40;99.90
7654;DHT22;3869;48.406;10.774;2023-06-26T01:45:48;16.40;99.90
7654;DHT22;3869;48.406;10.774;2023-06-26T01:48:22;16.40;99.90
7654;DHT22;3869;48.406;10.774;2023-06-26T01:50:52;16.40;99.90
7654;DHT22;3869;48.406;10.774;2023-06-26T01:53:24;16.40;99.90
7654;DHT22;3869;48.406;10.774;2023-06-26T01:55:55;16.30;99.90
7654;DHT22;3869;48.406;10.774;2023-06-26T01:58:25;16.20;99.90
7654;DHT22;3869;48.406;10.774;2023-06-26T02:00:54;16.30;99.90
7654;DHT22;3869;48.406;10.774;2023-06-26T02:03:22;16.20;99.90
7654;DHT22;3869;48.406;10.774;2023-06-26T02:05:51;16.20;99.90
7654;DHT22;3869;48.406;10.774;2023-06-26T02:08:19;16.20;99.90
7654;DHT22;3869;48.406;10.774;2023-06-26T02:10:49;16.20;99.90
7654;DHT22;3869;48.406;10.774;2023-06-26T02:13:17;16.20;99.90
7654;DHT22;3869;48.406;10.774;2023-06-26T02:15:47;16.10;99.90
7654;DHT22;3869;48.406;10.774;2023-06-26T02:18:15;16.10;99.90
7654;DHT22;3869;48.406;10.774;2023-06-26T02:20:44;16.10;99.90
7654;DHT22;3869;48.406;10.774;2023-06-26T02:23:12;16.00;99.90
7654;DHT22;3869;48.406;10.774;2023-06-26T02:25:40;16.00;99.90
7654;DHT22;3869;48.406;10.774;2023-06-26T02:28:08;16.00;99.90
7654;DHT22;3869;48.406;10.774;2023-06-26T02:30:36;15.90;99.90
7654;DHT22;3869;48.406;10.774;2023-06-26T02:33:06;16.00;99.90
7654;DHT22;3869;48.406;10.774;2023-06-26T02:35:34;15.90;99.90
7654;DHT22;3869;48.406;10.774;2023-06-26T02:38:02;15.90;99.90
7654;DHT22;3869;48.406;10.774;2023-06-26T02:40:31;15.90;99.90
7654;DHT22;3869;48.406;10.774;2023-06-26T02:42:59;15.90;99.90
7654;DHT22;3869;48.406;10.774;2023-06-26T02:45:27;15.90;99.90
7654;DHT22;3869;48.406;10.774;2023-06-26T02:47:55;15.80;99.90
7654;DHT22;3869;48.406;10.774;2023-06-26T02:50:24;15.80;99.90
7654;DHT22;3869;48.406;10.774;2023-06-26T02:52:52;15.80;99.90
7654;DHT22;3869;48.406;10.774;2023-06-26T02:55:20;15.80;99.90
7654;DHT22;3869;48.406;10.774;2023-06-26T02:57:49;15.80;99.90
7654;DHT22;3869;48.406;10.774;2023-06-26T03:00:17;15.70;99.90
7654;DHT22;3869;48.406;10.774;2023-06-26T03:02:45;15.70;99.90
7654;DHT22;3869;48.406;10.774;2023-06-26T03:05:13;15.80;99.90
7654;DHT22;3869;48.406;10.774;2023-06-26T03:07:43;15.80;99.90
7654;DHT22;3869;48.406;10.774;2023-06-26T03:10:11;15.80;99.90
7654;DHT22;3869;48.406;10.774;2023-06-26T03:12:39;15.80;99.90
7654;DHT22;3869;48.406;10.774;2023-06-26T03:15:07;15.70;99.90
7654;DHT22;3869;48.406;10.774;2023-06-26T03:17:36;15.70;99.90
7654;DHT22;3869;48.406;10.774;2023-06-26T03:20:04;15.70;99.90
7654;DHT22;3869;48.406;10.774;2023-06-26T03:22:34;15.60;99.90
7654;DHT22;3869;48.406;10.774;2023-06-26T03:25:03;15.60;99.90
7654;DHT22;3869;48.406;10.774;2023-06-26T03:27:32;15.60;99.90
7654;DHT22;3869;48.406;10.774;2023-06-26T03:30:00;15.60;99.90
7654;DHT22;3869;48.406;10.774;2023-06-26T03:32:28;15.50;99.90
7654;DHT22;3869;48.406;10.774;2023-06-26T03:34:56;15.50;99.90
7654;DHT22;3869;48.406;10.774;2023-06-26T03:37:24;15.50;99.90
7654;DHT22;3869;48.406;10.774;2023-06-26T03:39:52;15.50;99.90
7654;DHT22;3869;48.406;10.774;2023-06-26T03:42:22;15.50;99.90
7654;DHT22;3869;48.406;10.774;2023-06-26T03:44:50;15.50;99.90
7654;DHT22;3869;48.406;10.774;2023-06-26T03:47:18;15.50;99.90
7654;DHT22;3869;48.406;10.774;2023-06-26T03:49:46;15.50;99.90
7654;DHT22;3869;48.406;10.774;2023-06-26T03:52:14;15.50;99.90
7654;DHT22;3869;48.406;10.774;2023-06-26T03:54:42;15.40;99.90
7654;DHT22;3869;48.406;10.774;2023-06-26T03:57:10;15.40;99.90
7654;DHT22;3869;48.406;10.774;2023-06-26T03:59:39;15.40;99.90
7654;DHT22;3869;48.406;10.774;2023-06-26T04:02:07;15.50;99.90
7654;DHT22;3869;48.406;10.774;2023-06-26T04:04:36;15.50;99.90
7654;DHT22;3869;48.406;10.774;2023-06-26T04:07:04;15.50;99.90
7654;DHT22;3869;48.406;10.774;2023-06-26T04:09:32;15.50;99.90
7654;DHT22;3869;48.406;10.774;2023-06-26T04:12:00;15.50;99.90
7654;DHT22;3869;48.406;10.774;2023-06-26T04:14:28;15.50;99.90
7654;DHT22;3869;48.406;10.774;2023-06-26T04:16:58;15.50;99.90
7654;DHT22;3869;48.406;10.774;2023-06-26T04:19:28;15.50;99.90
7654;DHT22;3869;48.406;10.774;2023-06-26T04:21:57;15.50;99.90
7654;DHT22;3869;48.406;10.774;2023-06-26T04:24:25;15.50;99.90
7654;DHT22;3869;48.406;10.774;2023-06-26T04:26:53;15.50;99.90
7654;DHT22;3869;48.406;10.774;2023-06-26T04:29:23;15.50;99.90
7654;DHT22;3869;48.406;10.774;2023-06-26T04:31:52;15.50;99.90
7654;DHT22;3869;48.406;10.774;2023-06-26T04:34:26;15.50;99.90
7654;DHT22;3869;48.406;10.774;2023-06-26T04:36:54;15.60;99.90
7654;DHT22;3869;48.406;10.774;2023-06-26T04:39:22;15.70;99.90
7654;DHT22;3869;48.406;10.774;2023-06-26T04:41:50;15.70;99.90
7654;DHT22;3869;48.406;10.774;2023-06-26T04:44:19;15.70;99.90
7654;DHT22;3869;48.406;10.774;2023-06-26T04:46:47;15.70;99.90
7654;DHT22;3869;48.406;10.774;2023-06-26T04:49:18;15.70;99.90
7654;DHT22;3869;48.406;10.774;2023-06-26T04:51:48;15.80;99.90
7654;DHT22;3869;48.406;10.774;2023-06-26T04:54:17;15.90;99.90
7654;DHT22;3869;48.406;10.774;2023-06-26T04:56:45;15.90;99.90
7654;DHT22;3869;48.406;10.774;2023-06-26T04:59:14;16.00;99.90
7654;DHT22;3869;48.406;10.774;2023-06-26T05:01:42;16.10;99.90
7654;DHT22;3869;48.406;10.774;2023-06-26T05:04:15;16.10;99.90
7654;DHT22;3869;48.406;10.774;2023-06-26T05:06:43;16.10;99.90
7654;DHT22;3869;48.406;10.774;2023-06-26T05:09:13;16.20;99.90
7654;DHT22;3869;48.406;10.774;2023-06-26T05:11:41;16.40;99.90
7654;DHT22;3869;48.406;10.774;2023-06-26T05:14:09;16.50;99.90
7654;DHT22;3869;48.406;10.774;2023-06-26T05:16:37;16.60;99.90
7654;DHT22;3869;48.406;10.774;2023-06-26T05:19:05;16.80;99.90
7654;DHT22;3869;48.406;10.774;2023-06-26T05:21:34;16.90;99.90
7654;DHT22;3869;48.406;10.774;2023-06-26T05:24:02;16.90;99.90
7654;DHT22;3869;48.406;10.774;2023-06-26T05:26:33;17.10;99.90
7654;DHT22;3869;48.406;10.774;2023-06-26T05:29:01;17.20;99.90
7654;DHT22;3869;48.406;10.774;2023-06-26T05:31:31;17.20;99.90
7654;DHT22;3869;48.406;10.774;2023-06-26T05:34:02;17.40;99.90
7654;DHT22;3869;48.406;10.774;2023-06-26T05:36:31;17.40;99.90
7654;DHT22;3869;48.406;10.774;2023-06-26T05:39:02;17.50;99.90
7654;DHT22;3869;48.406;10.774;2023-06-26T05:41:32;17.60;99.90
7654;DHT22;3869;48.406;10.774;2023-06-26T05:44:00;17.70;99.90
7654;DHT22;3869;48.406;10.774;2023-06-26T05:46:28;17.80;99.90
7654;DHT22;3869;48.406;10.774;2023-06-26T05:48:56;17.90;99.90
7654;DHT22;3869;48.406;10.774;2023-06-26T05:51:25;18.00;99.90
7654;DHT22;3869;48.406;10.774;2023-06-26T05:53:53;18.10;99.90
7654;DHT22;3869;48.406;10.774;2023-06-26T05:56:21;18.20;99.90
7654;DHT22;3869;48.406;10.774;2023-06-26T05:58:51;18.30;99.90
7654;DHT22;3869;48.406;10.774;2023-06-26T06:01:20;18.40;99.90
7654;DHT22;3869;48.406;10.774;2023-06-26T06:03:48;18.50;99.90
7654;DHT22;3869;48.406;10.774;2023-06-26T06:06:16;18.60;99.90
7654;DHT22;3869;48.406;10.774;2023-06-26T06:08:44;18.70;99.90
7654;DHT22;3869;48.406;10.774;2023-06-26T06:11:15;18.90;99.90
7654;DHT22;3869;48.406;10.774;2023-06-26T06:13:43;19.00;99.90
7654;DHT22;3869;48.406;10.774;2023-06-26T06:16:12;19.10;99.90
7654;DHT22;3869;48.406;10.774;2023-06-26T06:18:40;19.10;99.90
7654;DHT22;3869;48.406;10.774;2023-06-26T06:21:08;19.20;99.90
7654;DHT22;3869;48.406;10.774;2023-06-26T06:23:36;19.30;99.80
7654;DHT22;3869;48.406;10.774;2023-06-26T06:26:05;19.40;99.70
7654;DHT22;3869;48.406;10.774;2023-06-26T06:28:33;19.50;99.40
7654;DHT22;3869;48.406;10.774;2023-06-26T06:31:01;19.60;99.50
7654;DHT22;3869;48.406;10.774;2023-06-26T06:33:30;19.70;99.40
7654;DHT22;3869;48.406;10.774;2023-06-26T06:35:58;19.90;99.40
7654;DHT22;3869;48.406;10.774;2023-06-26T06:38:26;20.00;99.30
7654;DHT22;3869;48.406;10.774;2023-06-26T06:40:54;20.10;99.20
7654;DHT22;3869;48.406;10.774;2023-06-26T06:43:22;20.20;99.10
7654;DHT22;3869;48.406;10.774;2023-06-26T06:45:50;20.20;98.90
7654;DHT22;3869;48.406;10.774;2023-06-26T06:48:18;20.40;99.10
7654;DHT22;3869;48.406;10.774;2023-06-26T06:50:48;20.50;99.20
7654;DHT22;3869;48.406;10.774;2023-06-26T06:53:17;20.60;99.10
7654;DHT22;3869;48.406;10.774;2023-06-26T06:55:47;20.70;99.00
7654;DHT22;3869;48.406;10.774;2023-06-26T06:58:15;20.70;98.90
7654;DHT22;3869;48.406;10.774;2023-06-26T07:00:46;20.80;98.90
7654;DHT22;3869;48.406;10.774;2023-06-26T07:03:14;20.90;98.80
7654;DHT22;3869;48.406;10.774;2023-06-26T07:05:42;21.00;98.90
7654;DHT22;3869;48.406;10.774;2023-06-26T07:08:11;21.10;99.00
7654;DHT22;3869;48.406;10.774;2023-06-26T07:10:40;21.20;99.00
7654;DHT22;3869;48.406;10.774;2023-06-26T07:13:08;21.40;99.20
7654;DHT22;3869;48.406;10.774;2023-06-26T07:15:36;21.50;99.30
7654;DHT22;3869;48.406;10.774;2023-06-26T07:18:04;21.60;99.20
7654;DHT22;3869;48.406;10.774;2023-06-26T07:20:33;21.70;99.10
7654;DHT22;3869;48.406;10.774;2023-06-26T07:23:01;21.80;99.20
7654;DHT22;3869;48.406;10.774;2023-06-26T07:25:30;21.90;99.30
7654;DHT22;3869;48.406;10.774;2023-06-26T07:27:58;22.00;99.10
7654;DHT22;3869;48.406;10.774;2023-06-26T07:30:26;22.00;98.90
7654;DHT22;3869;48.406;10.774;2023-06-26T07:32:54;22.10;98.60
7654;DHT22;3869;48.406;10.774;2023-06-26T07:35:22;22.10;98.50
7654;DHT22;3869;48.406;10.774;2023-06-26T07:37:52;22.20;98.60
7654;DHT22;3869;48.406;10.774;2023-06-26T07:40:20;22.30;98.70
7654;DHT22;3869;48.406;10.774;2023-06-26T07:42:51;22.40;98.60
7654;DHT22;3869;48.406;10.774;2023-06-26T07:45:20;22.40;98.60
7654;DHT22;3869;48.406;10.774;2023-06-26T07:47:52;22.50;98.60
7654;DHT22;3869;48.406;10.774;2023-06-26T07:50:20;22.60;98.60
7654;DHT22;3869;48.406;10.774;2023-06-26T07:52:50;22.60;98.50
7654;DHT22;3869;48.406;10.774;2023-06-26T07:55:20;22.60;98.40
7654;DHT22;3869;48.406;10.774;2023-06-26T07:57:49;22.70;98.40
7654;DHT22;3869;48.406;10.774;2023-06-26T08:00:19;22.80;98.20
7654;DHT22;3869;48.406;10.774;2023-06-26T08:02:47;22.90;98.30
7654;DHT22;3869;48.406;10.774;2023-06-26T08:05:15;22.90;97.80
7654;DHT22;3869;48.406;10.774;2023-06-26T08:07:43;23.00;97.80
7654;DHT22;3869;48.406;10.774;2023-06-26T08:10:11;23.10;97.50
7654;DHT22;3869;48.406;10.774;2023-06-26T08:12:39;23.20;97.70
7654;DHT22;3869;48.406;10.774;2023-06-26T08:15:11;23.30;97.50
7654;DHT22;3869;48.406;10.774;2023-06-26T08:17:39;23.40;97.20
7654;DHT22;3869;48.406;10.774;2023-06-26T08:20:08;23.50;97.20
7654;DHT22;3869;48.406;10.774;2023-06-26T08:22:37;23.60;97.30
7654;DHT22;3869;48.406;10.774;2023-06-26T08:25:06;23.70;97.20
7654;DHT22;3869;48.406;10.774;2023-06-26T08:27:34;23.80;97.00
7654;DHT22;3869;48.406;10.774;2023-06-26T08:30:02;24.00;96.80
7654;DHT22;3869;48.406;10.774;2023-06-26T08:32:33;24.10;96.50
7654;DHT22;3869;48.406;10.774;2023-06-26T08:35:01;24.20;96.50
7654;DHT22;3869;48.406;10.774;2023-06-26T08:37:29;24.30;96.60
7654;DHT22;3869;48.406;10.774;2023-06-26T08:39:59;24.30;96.50
7654;DHT22;3869;48.406;10.774;2023-06-26T08:42:27;24.50;96.70
7654;DHT22;3869;48.406;10.774;2023-06-26T08:44:56;24.50;96.90
7654;DHT22;3869;48.406;10.774;2023-06-26T08:47:30;24.70;96.50
7654;DHT22;3869;48.406;10.774;2023-06-26T08:50:07;24.70;96.00
7654;DHT22;3869;48.406;10.774;2023-06-26T08:52:39;24.80;96.00
7654;DHT22;3869;48.406;10.774;2023-06-26T08:55:10;24.90;95.90
7654;DHT22;3869;48.406;10.774;2023-06-26T08:57:38;25.00;95.20
7654;DHT22;3869;48.406;10.774;2023-06-26T09:00:08;25.00;94.60
7654;DHT22;3869;48.406;10.774;2023-06-26T09:02:37;25.10;94.60
7654;DHT22;3869;48.406;10.774;2023-06-26T09:05:09;25.20;93.90
7654;DHT22;3869;48.406;10.774;2023-06-26T09:07:37;25.30;94.30
7654;DHT22;3869;48.406;10.774;2023-06-26T09:10:07;25.30;93.70
7654;DHT22;3869;48.406;10.774;2023-06-26T09:12:35;25.50;93.80
7654;DHT22;3869;48.406;10.774;2023-06-26T09:15:05;25.60;93.80
7654;DHT22;3869;48.406;10.774;2023-06-26T09:17:39;25.70;93.70
7654;DHT22;3869;48.406;10.774;2023-06-26T09:20:09;25.80;93.70
7654;DHT22;3869;48.406;10.774;2023-06-26T09:22:41;25.90;93.10
7654;DHT22;3869;48.406;10.774;2023-06-26T09:25:10;26.00;92.40
7654;DHT22;3869;48.406;10.774;2023-06-26T09:27:38;26.10;92.60
7654;DHT22;3869;48.406;10.774;2023-06-26T09:30:07;26.20;92.50
7654;DHT22;3869;48.406;10.774;2023-06-26T09:32:35;26.30;91.40
7654;DHT22;3869;48.406;10.774;2023-06-26T09:35:04;26.30;91.00
7654;DHT22;3869;48.406;10.774;2023-06-26T09:37:35;26.40;91.00
7654;DHT22;3869;48.406;10.774;2023-06-26T09:40:04;26.50;90.50
7654;DHT22;3869;48.406;10.774;2023-06-26T09:42:32;26.50;89.60
7654;DHT22;3869;48.406;10.774;2023-06-26T09:45:01;26.60;90.40
7654;DHT22;3869;48.406;10.774;2023-06-26T09:47:30;26.70;90.20
7654;DHT22;3869;48.406;10.774;2023-06-26T09:49:59;26.70;90.10
7654;DHT22;3869;48.406;10.774;2023-06-26T09:52:27;26.80;90.10
7654;DHT22;3869;48.406;10.774;2023-06-26T09:55:09;26.90;90.30
7654;DHT22;3869;48.406;10.774;2023-06-26T09:57:38;26.90;90.00
7654;DHT22;3869;48.406;10.774;2023-06-26T10:00:06;27.00;90.30
7654;DHT22;3869;48.406;10.774;2023-06-26T10:02:36;27.10;90.20
7654;DHT22;3869;48.406;10.774;2023-06-26T10:05:05;27.10;90.10
7654;DHT22;3869;48.406;10.774;2023-06-26T10:07:33;27.20;90.00
7654;DHT22;3869;48.406;10.774;2023-06-26T10:10:03;27.30;89.30
7654;DHT22;3869;48.406;10.774;2023-06-26T10:12:34;27.40;89.10
7654;DHT22;3869;48.406;10.774;2023-06-26T10:15:02;27.40;88.90
7654;DHT22;3869;48.406;10.774;2023-06-26T10:17:34;27.50;87.90
7654;DHT22;3869;48.406;10.774;2023-06-26T10:20:04;27.60;87.00
7654;DHT22;3869;48.406;10.774;2023-06-26T10:22:40;27.70;87.70
7654;DHT22;3869;48.406;10.774;2023-06-26T10:25:09;27.80;87.70
7654;DHT22;3869;48.406;10.774;2023-06-26T10:27:44;27.80;86.80
7654;DHT22;3869;48.406;10.774;2023-06-26T10:30:16;27.90;87.40
7654;DHT22;3869;48.406;10.774;2023-06-26T10:32:47;28.00;85.60
7654;DHT22;3869;48.406;10.774;2023-06-26T10:35:15;28.00;85.70
7654;DHT22;3869;48.406;10.774;2023-06-26T10:37:45;28.00;85.50
7654;DHT22;3869;48.406;10.774;2023-06-26T10:40:14;28.20;85.70
7654;DHT22;3869;48.406;10.774;2023-06-26T10:42:43;28.20;85.10
7654;DHT22;3869;48.406;10.774;2023-06-26T10:45:14;28.30;85.10
7654;DHT22;3869;48.406;10.774;2023-06-26T10:47:46;28.40;86.60
7654;DHT22;3869;48.406;10.774;2023-06-26T10:50:23;28.60;86.50
7654;DHT22;3869;48.406;10.774;2023-06-26T10:53:11;28.70;86.00
7654;DHT22;3869;48.406;10.774;2023-06-26T10:55:47;28.80;85.90
7654;DHT22;3869;48.406;10.774;2023-06-26T10:58:30;28.90;86.40
7654;DHT22;3869;48.406;10.774;2023-06-26T11:01:21;29.00;85.80
7654;DHT22;3869;48.406;10.774;2023-06-26T11:04:06;29.00;85.40
7654;DHT22;3869;48.406;10.774;2023-06-26T11:06:35;29.00;85.30
7654;DHT22;3869;48.406;10.774;2023-06-26T11:09:10;29.00;85.00
7654;DHT22;3869;48.406;10.774;2023-06-26T11:11:57;29.00;84.70
7654;DHT22;3869;48.406;10.774;2023-06-26T11:14:36;29.10;84.20
7654;DHT22;3869;48.406;10.774;2023-06-26T11:17:05;29.20;84.60
7654;DHT22;3869;48.406;10.774;2023-06-26T11:19:33;29.20;83.30
7654;DHT22;3869;48.406;10.774;2023-06-26T11:22:05;29.20;84.30
7654;DHT22;3869;48.406;10.774;2023-06-26T11:24:33;29.10;82.40
7654;DHT22;3869;48.406;10.774;2023-06-26T11:27:03;29.00;83.10
7654;DHT22;3869;48.406;10.774;2023-06-26T11:29:32;28.90;82.80
7654;DHT22;3869;48.406;10.774;2023-06-26T11:32:04;29.00;84.50
7654;DHT22;3869;48.406;10.774;2023-06-26T11:34:35;29.10;82.30
7654;DHT22;3869;48.406;10.774;2023-06-26T11:37:05;29.20;84.20
7654;DHT22;3869;48.406;10.774;2023-06-26T11:39:33;29.30;84.20
7654;DHT22;3869;48.406;10.774;2023-06-26T11:42:01;29.40;84.50
7654;DHT22;3869;48.406;10.774;2023-06-26T11:44:30;29.50;83.10
7654;DHT22;3869;48.406;10.774;2023-06-26T11:46:59;29.50;81.20
7654;DHT22;3869;48.406;10.774;2023-06-26T11:49:29;29.60;81.50
7654;DHT22;3869;48.406;10.774;2023-06-26T11:51:57;29.70;81.50
7654;DHT22;3869;48.406;10.774;2023-06-26T11:54:26;29.80;80.50
7654;DHT22;3869;48.406;10.774;2023-06-26T11:56:59;29.80;77.20
7654;DHT22;3869;48.406;10.774;2023-06-26T11:59:34;29.80;77.90
7654;DHT22;3869;48.406;10.774;2023-06-26T12:02:07;29.90;78.20
7654;DHT22;3869;48.406;10.774;2023-06-26T12:04:38;29.90;79.50
7654;DHT22;3869;48.406;10.774;2023-06-26T12:07:09;29.90;78.00
7654;DHT22;3869;48.406;10.774;2023-06-26T12:09:39;30.10;78.10
7654;DHT22;3869;48.406;10.774;2023-06-26T12:12:09;30.10;76.90
7654;DHT22;3869;48.406;10.774;2023-06-26T12:14:38;30.20;77.50
7654;DHT22;3869;48.406;10.774;2023-06-26T12:17:09;30.20;76.60
7654;DHT22;3869;48.406;10.774;2023-06-26T12:19:42;30.10;74.50
7654;DHT22;3869;48.406;10.774;2023-06-26T12:22:10;30.10;74.70
7654;DHT22;3869;48.406;10.774;2023-06-26T12:24:39;30.10;75.00
7654;DHT22;3869;48.406;10.774;2023-06-26T12:27:10;30.10;76.10
7654;DHT22;3869;48.406;10.774;2023-06-26T12:29:40;30.20;74.70
7654;DHT22;3869;48.406;10.774;2023-06-26T12:32:10;30.30;74.70
7654;DHT22;3869;48.406;10.774;2023-06-26T12:34:39;30.20;72.80
7654;DHT22;3869;48.406;10.774;2023-06-26T12:37:09;30.20;73.80
7654;DHT22;3869;48.406;10.774;2023-06-26T12:39:46;30.30;74.60
7654;DHT22;3869;48.406;10.774;2023-06-26T12:42:16;30.40;74.60
7654;DHT22;3869;48.406;10.774;2023-06-26T12:44:44;30.40;72.80
7654;DHT22;3869;48.406;10.774;2023-06-26T12:47:14;30.40;73.30
7654;DHT22;3869;48.406;10.774;2023-06-26T12:49:45;30.20;72.80
7654;DHT22;3869;48.406;10.774;2023-06-26T12:52:17;30.20;74.80
7654;DHT22;3869;48.406;10.774;2023-06-26T12:54:51;30.30;75.70
7654;DHT22;3869;48.406;10.774;2023-06-26T12:57:19;30.30;75.20
7654;DHT22;3869;48.406;10.774;2023-06-26T12:59:47;30.20;74.30
7654;DHT22;3869;48.406;10.774;2023-06-26T13:02:15;30.10;74.00
7654;DHT22;3869;48.406;10.774;2023-06-26T13:04:44;30.10;73.30
7654;DHT22;3869;48.406;10.774;2023-06-26T13:07:13;30.10;73.10
7654;DHT22;3869;48.406;10.774;2023-06-26T13:09:41;30.10;73.10
7654;DHT22;3869;48.406;10.774;2023-06-26T13:12:10;30.10;75.20
7654;DHT22;3869;48.406;10.774;2023-06-26T13:14:38;30.20;74.70
7654;DHT22;3869;48.406;10.774;2023-06-26T13:17:06;30.30;76.30
7654;DHT22;3869;48.406;10.774;2023-06-26T13:19:36;30.30;73.80
7654;DHT22;3869;48.406;10.774;2023-06-26T13:22:05;30.40;76.40
7654;DHT22;3869;48.406;10.774;2023-06-26T13:24:33;30.60;76.90
7654;DHT22;3869;48.406;10.774;2023-06-26T13:27:01;30.70;75.50
7654;DHT22;3869;48.406;10.774;2023-06-26T13:29:30;30.80;76.70
7654;DHT22;3869;48.406;10.774;2023-06-26T13:31:58;30.90;76.30
7654;DHT22;3869;48.406;10.774;2023-06-26T13:34:28;31.00;76.60
7654;DHT22;3869;48.406;10.774;2023-06-26T13:36:56;31.10;75.00
7654;DHT22;3869;48.406;10.774;2023-06-26T13:39:27;31.20;75.50
7654;DHT22;3869;48.406;10.774;2023-06-26T13:41:55;31.10;72.80
7654;DHT22;3869;48.406;10.774;2023-06-26T13:44:24;31.00;72.50
7654;DHT22;3869;48.406;10.774;2023-06-26T13:47:13;30.90;73.40
7654;DHT22;3869;48.406;10.774;2023-06-26T13:49:41;30.80;73.60
7654;DHT22;3869;48.406;10.774;2023-06-26T13:52:09;30.70;73.30
7654;DHT22;3869;48.406;10.774;2023-06-26T13:54:39;30.50;73.70
7654;DHT22;3869;48.406;10.774;2023-06-26T13:57:07;30.30;72.60
7654;DHT22;3869;48.406;10.774;2023-06-26T13:59:37;30.10;73.90
7654;DHT22;3869;48.406;10.774;2023-06-26T14:02:06;30.00;74.30
7654;DHT22;3869;48.406;10.774;2023-06-26T14:04:34;29.90;75.80
7654;DHT22;3869;48.406;10.774;2023-06-26T14:07:04;29.90;75.00
7654;DHT22;3869;48.406;10.774;2023-06-26T14:09:32;29.70;74.60
7654;DHT22;3869;48.406;10.774;2023-06-26T14:12:02;29.70;77.70
7654;DHT22;3869;48.406;10.774;2023-06-26T14:14:30;29.70;77.30
7654;DHT22;3869;48.406;10.774;2023-06-26T14:16:58;29.70;76.90
7654;DHT22;3869;48.406;10.774;2023-06-26T14:19:26;29.70;76.90
7654;DHT22;3869;48.406;10.774;2023-06-26T14:21:54;29.70;77.90
7654;DHT22;3869;48.406;10.774;2023-06-26T14:24:22;29.70;77.70
7654;DHT22;3869;48.406;10.774;2023-06-26T14:26:50;29.80;77.20
7654;DHT22;3869;48.406;10.774;2023-06-26T14:29:20;29.90;78.70
7654;DHT22;3869;48.406;10.774;2023-06-26T14:31:48;30.00;79.00
7654;DHT22;3869;48.406;10.774;2023-06-26T14:34:18;30.00;77.70
7654;DHT22;3869;48.406;10.774;2023-06-26T14:36:46;30.00;75.40
7654;DHT22;3869;48.406;10.774;2023-06-26T14:39:14;30.10;76.30
7654;DHT22;3869;48.406;10.774;2023-06-26T14:41:42;30.10;77.90
7654;DHT22;3869;48.406;10.774;2023-06-26T14:44:11;30.20;77.10
7654;DHT22;3869;48.406;10.774;2023-06-26T14:46:41;30.10;76.40
7654;DHT22;3869;48.406;10.774;2023-06-26T14:49:09;30.10;77.10
7654;DHT22;3869;48.406;10.774;2023-06-26T14:51:38;30.10;76.60
7654;DHT22;3869;48.406;10.774;2023-06-26T14:54:07;30.10;79.50
7654;DHT22;3869;48.406;10.774;2023-06-26T14:56:35;30.30;79.40
7654;DHT22;3869;48.406;10.774;2023-06-26T14:59:03;30.30;76.80
7654;DHT22;3869;48.406;10.774;2023-06-26T15:01:33;30.30;77.60
7654;DHT22;3869;48.406;10.774;2023-06-26T15:04:03;30.10;77.20
7654;DHT22;3869;48.406;10.774;2023-06-26T15:06:31;30.00;78.40
7654;DHT22;3869;48.406;10.774;2023-06-26T15:09:00;29.90;78.80
7654;DHT22;3869;48.406;10.774;2023-06-26T15:11:29;29.80;78.70
7654;DHT22;3869;48.406;10.774;2023-06-26T15:13:57;29.70;78.50
7654;DHT22;3869;48.406;10.774;2023-06-26T15:16:25;29.60;78.90
7654;DHT22;3869;48.406;10.774;2023-06-26T15:18:54;29.60;79.00
7654;DHT22;3869;48.406;10.774;2023-06-26T15:21:23;29.50;78.70
7654;DHT22;3869;48.406;10.774;2023-06-26T15:23:51;29.50;80.40
7654;DHT22;3869;48.406;10.774;2023-06-26T15:26:19;29.40;79.70
7654;DHT22;3869;48.406;10.774;2023-06-26T15:28:47;29.30;79.10
7654;DHT22;3869;48.406;10.774;2023-06-26T15:31:17;29.20;78.90
7654;DHT22;3869;48.406;10.774;2023-06-26T15:33:45;29.00;80.00
7654;DHT22;3869;48.406;10.774;2023-06-26T15:36:13;29.00;80.70
7654;DHT22;3869;48.406;10.774;2023-06-26T15:38:43;28.90;79.90
7654;DHT22;3869;48.406;10.774;2023-06-26T15:41:11;28.80;80.70
7654;DHT22;3869;48.406;10.774;2023-06-26T15:43:39;28.70;80.50
7654;DHT22;3869;48.406;10.774;2023-06-26T15:46:09;28.70;80.90
7654;DHT22;3869;48.406;10.774;2023-06-26T15:48:37;28.70;82.80
7654;DHT22;3869;48.406;10.774;2023-06-26T15:51:08;28.50;85.10
7654;DHT22;3869;48.406;10.774;2023-06-26T15:53:37;28.20;94.60
7654;DHT22;3869;48.406;10.774;2023-06-26T15:56:08;27.20;98.10
7654;DHT22;3869;48.406;10.774;2023-06-26T15:58:37;26.10;98.90